createdAt,value
2017-05-12T00:00:12.534Z,0
2017-05-12T00:00:53.061Z,0
2017-05-12T00:01:33.591Z,0
2017-05-12T00:02:14.130Z,0
2017-05-12T00:02:54.668Z,0
2017-05-12T00:03:35.205Z,0
2017-05-12T00:04:15.739Z,0
2017-05-12T00:04:56.263Z,0
2017-05-12T00:05:36.803Z,0
2017-05-12T00:06:17.340Z,0
2017-05-12T00:06:57.894Z,0
2017-05-12T00:07:38.560Z,0
2017-05-12T00:08:19.059Z,0
2017-05-12T00:08:59.594Z,0
2017-05-12T00:09:40.133Z,0
2017-05-12T00:10:20.685Z,0
2017-05-12T00:11:01.219Z,0
2017-05-12T00:11:41.776Z,0
2017-05-12T00:12:22.302Z,0
2017-05-12T00:13:02.836Z,0
2017-05-12T00:13:43.369Z,0
2017-05-12T00:14:23.907Z,0
2017-05-12T00:15:04.445Z,0
2017-05-12T00:15:44.987Z,0
2017-05-12T00:16:25.520Z,0
2017-05-12T00:17:06.054Z,0
2017-05-12T00:17:46.593Z,0
2017-05-12T00:18:27.127Z,0
2017-05-12T00:19:07.661Z,0
2017-05-12T00:19:48.201Z,0
2017-05-12T00:20:28.744Z,0
2017-05-12T00:21:09.276Z,0
2017-05-12T00:21:49.816Z,0
2017-05-12T00:22:30.360Z,0
2017-05-12T00:23:10.880Z,0
2017-05-12T00:23:51.415Z,0
2017-05-12T00:24:31.948Z,0
2017-05-12T00:25:12.493Z,0
2017-05-12T00:25:53.026Z,0
2017-05-12T00:26:33.560Z,0
2017-05-12T00:27:14.099Z,0
2017-05-12T00:27:54.633Z,0
2017-05-12T00:28:35.170Z,0
2017-05-12T00:29:15.701Z,0
2017-05-12T00:29:56.233Z,0
2017-05-12T00:30:36.775Z,0
2017-05-12T00:31:17.324Z,0
2017-05-12T00:31:57.865Z,0
2017-05-12T00:32:38.399Z,0
2017-05-12T00:33:18.935Z,0
2017-05-12T00:33:59.473Z,0
2017-05-12T00:34:40.011Z,0
2017-05-12T00:35:20.545Z,0
2017-05-12T00:36:01.093Z,0
2017-05-12T00:36:41.626Z,0
2017-05-12T00:37:22.149Z,0
2017-05-12T00:38:02.680Z,0
2017-05-12T00:38:43.218Z,0
2017-05-12T00:39:23.754Z,0
2017-05-12T00:40:04.293Z,0
2017-05-12T00:40:44.833Z,0
2017-05-12T00:41:25.374Z,0
2017-05-12T00:42:05.901Z,0
2017-05-12T00:42:46.429Z,0
2017-05-12T00:43:26.967Z,0
2017-05-12T00:44:07.508Z,0
2017-05-12T00:44:48.084Z,0
2017-05-12T00:45:28.585Z,0
2017-05-12T00:46:09.111Z,0
2017-05-12T00:46:49.695Z,0
2017-05-12T00:47:30.229Z,0
2017-05-12T00:48:10.761Z,0
2017-05-12T00:48:51.292Z,0
2017-05-12T00:49:31.830Z,0
2017-05-12T00:50:12.367Z,0
2017-05-12T00:50:52.900Z,0
2017-05-12T00:51:33.440Z,0
2017-05-12T00:52:13.975Z,0
2017-05-12T00:52:54.520Z,0
2017-05-12T00:53:35.054Z,0
2017-05-12T00:54:15.594Z,0
2017-05-12T00:54:56.126Z,0
2017-05-12T00:55:36.659Z,0
2017-05-12T00:56:17.202Z,0
2017-05-12T00:56:57.741Z,0
2017-05-12T00:57:38.265Z,0
2017-05-12T00:58:18.800Z,0
2017-05-12T00:58:59.335Z,0
2017-05-12T00:59:39.871Z,0
2017-05-12T01:00:20.462Z,0
2017-05-12T01:01:01.001Z,0
2017-05-12T01:01:41.541Z,0
2017-05-12T01:02:22.074Z,0
2017-05-12T01:03:02.609Z,0
2017-05-12T01:03:43.164Z,0
2017-05-12T01:04:23.705Z,0
2017-05-12T01:05:04.244Z,0
2017-05-12T01:05:44.778Z,0
2017-05-12T01:06:25.314Z,0
2017-05-12T01:07:05.853Z,0
2017-05-12T01:07:46.377Z,0
2017-05-12T01:08:26.919Z,0
2017-05-12T01:09:07.461Z,0
2017-05-12T01:09:47.998Z,0
2017-05-12T01:10:28.533Z,0
2017-05-12T01:11:09.057Z,0
2017-05-12T01:11:49.596Z,0
2017-05-12T01:12:30.133Z,0
2017-05-12T01:13:10.665Z,0
2017-05-12T01:13:51.193Z,0
2017-05-12T01:14:31.742Z,0
2017-05-12T01:15:12.276Z,0
2017-05-12T01:15:52.814Z,0
2017-05-12T01:16:33.350Z,0
2017-05-12T01:17:13.887Z,0
2017-05-12T01:17:54.427Z,0
2017-05-12T01:18:34.968Z,0
2017-05-12T01:19:15.510Z,0
2017-05-12T01:19:56.037Z,0
2017-05-12T01:20:36.567Z,0
2017-05-12T01:21:17.104Z,0
2017-05-12T01:21:57.645Z,0
2017-05-12T01:22:38.181Z,0
2017-05-12T01:23:18.745Z,0
2017-05-12T01:23:59.281Z,0
2017-05-12T01:24:39.820Z,0
2017-05-12T01:25:20.373Z,0
2017-05-12T01:26:00.916Z,0
2017-05-12T01:26:41.450Z,0
2017-05-12T01:27:21.982Z,0
2017-05-12T01:28:02.526Z,0
2017-05-12T01:28:43.060Z,0
2017-05-12T01:29:23.591Z,0
2017-05-12T01:30:04.139Z,0
2017-05-12T01:30:44.672Z,0
2017-05-12T01:31:25.200Z,0
2017-05-12T01:32:05.737Z,0
2017-05-12T01:32:46.262Z,0
2017-05-12T01:33:26.800Z,0
2017-05-12T01:34:07.340Z,0
2017-05-12T01:34:47.873Z,0
2017-05-12T01:35:28.416Z,0
2017-05-12T01:36:08.938Z,0
2017-05-12T01:36:49.476Z,0
2017-05-12T01:37:30.014Z,0
2017-05-12T01:38:10.545Z,0
2017-05-12T01:38:51.094Z,0
2017-05-12T01:39:31.638Z,0
2017-05-12T01:40:12.175Z,0
2017-05-12T01:40:52.705Z,0
2017-05-12T01:41:33.241Z,0
2017-05-12T01:42:13.787Z,0
2017-05-12T01:42:54.323Z,0
2017-05-12T01:43:34.861Z,0
2017-05-12T01:44:15.400Z,0
2017-05-12T01:44:55.941Z,0
2017-05-12T01:45:36.477Z,0
2017-05-12T01:46:17.006Z,0
2017-05-12T01:46:57.538Z,0
2017-05-12T01:47:38.078Z,0
2017-05-12T01:48:21.388Z,0
2017-05-12T01:49:01.970Z,0
2017-05-12T01:49:42.542Z,0
2017-05-12T01:50:23.113Z,0
2017-05-12T01:51:03.686Z,0
2017-05-12T01:51:44.259Z,0
2017-05-12T01:52:24.826Z,0
2017-05-12T01:53:05.405Z,0
2017-05-12T01:53:45.981Z,0
2017-05-12T01:54:26.552Z,0
2017-05-12T01:55:07.124Z,0
2017-05-12T01:55:47.694Z,0
2017-05-12T01:56:28.260Z,0
2017-05-12T01:57:08.836Z,0
2017-05-12T01:57:49.405Z,0
2017-05-12T01:58:29.978Z,0
2017-05-12T01:59:10.549Z,0
2017-05-12T01:59:51.131Z,0
2017-05-12T02:00:31.706Z,0
2017-05-12T02:01:12.280Z,0
2017-05-12T02:01:52.854Z,0
2017-05-12T02:02:33.425Z,0
2017-05-12T02:03:14.009Z,0
2017-05-12T02:03:54.587Z,0
2017-05-12T02:04:35.179Z,0
2017-05-12T02:05:15.757Z,0
2017-05-12T02:05:56.328Z,0
2017-05-12T02:06:36.960Z,0
2017-05-12T02:07:17.540Z,0
2017-05-12T02:07:58.123Z,0
2017-05-12T02:08:38.685Z,0
2017-05-12T02:09:19.299Z,0
2017-05-12T02:09:59.886Z,0
2017-05-12T02:10:40.460Z,0
2017-05-12T02:11:21.041Z,0
2017-05-12T02:12:01.621Z,0
2017-05-12T02:12:42.199Z,0
2017-05-12T02:13:22.769Z,0
2017-05-12T02:14:03.358Z,0
2017-05-12T02:14:43.938Z,0
2017-05-12T02:15:24.507Z,0
2017-05-12T02:16:05.086Z,0
2017-05-12T02:16:45.667Z,0
2017-05-12T02:17:26.235Z,0
2017-05-12T02:18:06.805Z,0
2017-05-12T02:18:47.428Z,0
2017-05-12T02:19:27.953Z,0
2017-05-12T02:20:08.539Z,0
2017-05-12T02:20:49.128Z,0
2017-05-12T02:21:29.710Z,0
2017-05-12T02:22:10.305Z,0
2017-05-12T02:22:50.874Z,0
2017-05-12T02:23:31.449Z,0
2017-05-12T02:24:12.015Z,0
2017-05-12T02:24:52.596Z,0
2017-05-12T02:25:33.188Z,0
2017-05-12T02:26:13.768Z,0
2017-05-12T02:26:54.354Z,0
2017-05-12T02:27:34.933Z,0
2017-05-12T02:28:15.524Z,0
2017-05-12T02:28:56.104Z,0
2017-05-12T02:29:36.669Z,0
2017-05-12T02:30:17.243Z,0
2017-05-12T02:30:57.847Z,0
2017-05-12T02:31:38.452Z,0
2017-05-12T02:32:19.025Z,0
2017-05-12T02:32:59.599Z,0
2017-05-12T02:33:40.174Z,0
2017-05-12T02:34:20.744Z,0
2017-05-12T02:35:01.340Z,0
2017-05-12T02:35:41.913Z,0
2017-05-12T02:36:22.486Z,0
2017-05-12T02:37:03.054Z,0
2017-05-12T02:37:43.639Z,0
2017-05-12T02:38:24.215Z,0
2017-05-12T02:39:04.808Z,0
2017-05-12T02:39:45.393Z,0
2017-05-12T02:40:25.968Z,0
2017-05-12T02:41:06.546Z,0
2017-05-12T02:41:47.133Z,0
2017-05-12T02:42:27.709Z,0
2017-05-12T02:43:08.282Z,0
2017-05-12T02:43:48.853Z,0
2017-05-12T02:44:29.421Z,0
2017-05-12T02:45:09.998Z,0
2017-05-12T02:45:50.577Z,0
2017-05-12T02:46:31.176Z,0
2017-05-12T02:47:11.748Z,0
2017-05-12T02:47:52.325Z,0
2017-05-12T02:48:32.914Z,0
2017-05-12T02:49:13.495Z,0
2017-05-12T02:49:54.088Z,0
2017-05-12T02:50:34.669Z,0
2017-05-12T02:51:15.247Z,0
2017-05-12T02:51:55.828Z,0
2017-05-12T02:52:36.410Z,0
2017-05-12T02:53:16.988Z,0
2017-05-12T02:53:57.562Z,0
2017-05-12T02:54:38.134Z,0
2017-05-12T02:55:18.701Z,0
2017-05-12T02:55:59.281Z,0
2017-05-12T02:56:39.850Z,0
2017-05-12T02:57:20.441Z,0
2017-05-12T02:58:01.008Z,0
2017-05-12T02:58:41.582Z,0
2017-05-12T02:59:22.154Z,0
2017-05-12T03:00:02.727Z,0
2017-05-12T03:00:43.294Z,0
2017-05-12T03:01:23.871Z,0
2017-05-12T03:02:04.442Z,0
2017-05-12T03:02:45.013Z,0
2017-05-12T03:03:25.580Z,0
2017-05-12T03:04:06.152Z,0
2017-05-12T03:04:46.724Z,0
2017-05-12T03:05:27.291Z,0
2017-05-12T03:06:07.862Z,0
2017-05-12T03:06:48.453Z,0
2017-05-12T03:07:29.038Z,0
2017-05-12T03:08:09.638Z,0
2017-05-12T03:08:50.217Z,0
2017-05-12T03:09:30.790Z,0
2017-05-12T03:10:11.364Z,0
2017-05-12T03:10:51.937Z,0
2017-05-12T03:11:32.502Z,0
2017-05-12T03:12:13.079Z,0
2017-05-12T03:12:53.668Z,0
2017-05-12T03:13:34.234Z,0
2017-05-12T03:14:14.824Z,0
2017-05-12T03:14:55.409Z,0
2017-05-12T03:15:35.990Z,0
2017-05-12T03:16:16.582Z,0
2017-05-12T03:16:57.150Z,0
2017-05-12T03:17:37.727Z,0
2017-05-12T03:18:18.312Z,0
2017-05-12T03:18:58.866Z,0
2017-05-12T03:19:39.439Z,0
2017-05-12T03:20:20.034Z,0
2017-05-12T03:21:00.610Z,0
2017-05-12T03:21:41.210Z,0
2017-05-12T03:22:21.785Z,0
2017-05-12T03:23:02.391Z,0
2017-05-12T03:23:42.926Z,0
2017-05-12T03:24:23.495Z,0
2017-05-12T03:25:04.072Z,0
2017-05-12T03:25:44.662Z,0
2017-05-12T03:26:25.235Z,0
2017-05-12T03:27:05.803Z,0
2017-05-12T03:27:46.377Z,0
2017-05-12T03:28:26.971Z,0
2017-05-12T03:29:07.554Z,0
2017-05-12T03:29:48.134Z,0
2017-05-12T03:30:28.719Z,0
2017-05-12T03:31:09.325Z,0
2017-05-12T03:31:49.910Z,0
2017-05-12T03:32:30.495Z,0
2017-05-12T03:33:11.071Z,0
2017-05-12T03:33:51.638Z,0
2017-05-12T03:34:32.220Z,0
2017-05-12T03:35:12.786Z,0
2017-05-12T03:35:53.439Z,0
2017-05-12T03:36:51.802Z,0
2017-05-12T03:37:53.557Z,0
2017-05-12T03:38:34.141Z,0
2017-05-12T03:39:14.715Z,0
2017-05-12T03:39:55.312Z,0
2017-05-12T03:40:35.898Z,0
2017-05-12T03:41:16.486Z,0
2017-05-12T03:41:57.065Z,0
2017-05-12T03:42:37.639Z,0
2017-05-12T03:43:18.231Z,0
2017-05-12T03:43:58.814Z,0
2017-05-12T03:44:39.397Z,0
2017-05-12T03:45:19.972Z,0
2017-05-12T03:46:00.538Z,0
2017-05-12T03:46:41.124Z,0
2017-05-12T03:47:21.703Z,0
2017-05-12T03:48:02.277Z,0
2017-05-12T03:48:42.846Z,0
2017-05-12T03:49:23.422Z,0
2017-05-12T03:50:04.016Z,0
2017-05-12T03:50:44.721Z,0
2017-05-12T03:51:25.288Z,0
2017-05-12T03:52:05.877Z,0
2017-05-12T03:52:46.455Z,0
2017-05-12T03:53:27.026Z,0
2017-05-12T03:54:07.604Z,0
2017-05-12T03:54:48.184Z,0
2017-05-12T03:55:28.759Z,0
2017-05-12T03:56:09.329Z,0
2017-05-12T03:56:49.895Z,0
2017-05-12T03:57:30.489Z,5
2017-05-12T03:58:11.076Z,5
2017-05-12T03:58:51.674Z,5
2017-05-12T03:59:32.366Z,5
2017-05-12T04:00:12.939Z,5
2017-05-12T04:00:53.514Z,5
2017-05-12T04:01:34.086Z,5
2017-05-12T04:02:14.673Z,5
2017-05-12T04:02:55.249Z,5
2017-05-12T04:03:35.821Z,5
2017-05-12T04:04:16.412Z,5
2017-05-12T04:04:57.013Z,5
2017-05-12T04:05:37.595Z,5
2017-05-12T04:06:18.178Z,5
2017-05-12T04:06:58.760Z,5
2017-05-12T04:07:39.351Z,5
2017-05-12T04:08:19.901Z,5
2017-05-12T04:09:00.473Z,10
2017-05-12T04:09:41.052Z,10
2017-05-12T04:10:21.648Z,10
2017-05-12T04:11:02.208Z,10
2017-05-12T04:11:42.786Z,10
2017-05-12T04:12:23.356Z,10
2017-05-12T04:13:03.925Z,10
2017-05-12T04:13:44.493Z,15
2017-05-12T04:14:25.077Z,15
2017-05-12T04:15:05.686Z,15
2017-05-12T04:15:46.286Z,15
2017-05-12T04:16:26.866Z,15
2017-05-12T04:17:07.436Z,15
2017-05-12T04:17:48.001Z,15
2017-05-12T04:18:28.570Z,15
2017-05-12T04:19:09.143Z,15
2017-05-12T04:19:49.712Z,15
2017-05-12T04:20:30.298Z,15
2017-05-12T04:21:10.872Z,15
2017-05-12T04:21:51.448Z,15
2017-05-12T04:22:32.021Z,15
2017-05-12T04:23:12.602Z,15
2017-05-12T04:23:53.179Z,15
2017-05-12T04:24:33.772Z,15
2017-05-12T04:25:14.360Z,15
2017-05-12T04:25:54.928Z,15
2017-05-12T04:26:35.520Z,15
2017-05-12T04:27:16.133Z,15
2017-05-12T04:27:57.621Z,15
2017-05-12T04:28:38.202Z,15
2017-05-12T04:29:18.796Z,15
2017-05-12T04:29:59.389Z,15
2017-05-12T04:30:39.969Z,15
2017-05-12T04:31:20.553Z,15
2017-05-12T04:32:01.127Z,15
2017-05-12T04:32:41.700Z,15
2017-05-12T04:33:22.270Z,15
2017-05-12T04:34:03.635Z,15
2017-05-12T04:34:44.249Z,15
2017-05-12T04:35:24.833Z,15
2017-05-12T04:36:05.416Z,15
2017-05-12T04:36:46.069Z,20
2017-05-12T04:37:26.642Z,20
2017-05-12T04:38:07.214Z,20
2017-05-12T04:38:47.800Z,25
2017-05-12T04:39:28.379Z,25
2017-05-12T04:40:08.968Z,25
2017-05-12T04:40:49.547Z,25
2017-05-12T04:41:30.133Z,25
2017-05-12T04:42:10.832Z,25
2017-05-12T04:42:53.501Z,25
2017-05-12T04:45:30.397Z,25
2017-05-12T04:46:10.974Z,25
2017-05-12T04:46:51.547Z,25
2017-05-12T04:47:32.159Z,25
2017-05-12T04:48:12.733Z,25
2017-05-12T04:48:53.327Z,25
2017-05-12T04:49:33.893Z,25
2017-05-12T04:50:14.504Z,25
2017-05-12T04:50:55.064Z,25
2017-05-12T04:51:35.648Z,25
2017-05-12T04:52:16.252Z,25
2017-05-12T04:52:56.876Z,30
2017-05-12T04:53:37.504Z,30
2017-05-12T04:54:18.154Z,30
2017-05-12T04:54:58.833Z,35
2017-05-12T04:55:40.251Z,35
2017-05-12T04:56:20.961Z,35
2017-05-12T04:57:01.539Z,35
2017-05-12T04:57:42.132Z,40
2017-05-12T04:58:22.754Z,40
2017-05-12T04:59:03.524Z,40
2017-05-12T04:59:44.095Z,40
2017-05-12T05:00:24.717Z,40
2017-05-12T05:01:05.284Z,35
2017-05-12T05:01:45.860Z,35
2017-05-12T05:02:26.434Z,35
2017-05-12T05:03:07.005Z,35
2017-05-12T05:03:47.593Z,35
2017-05-12T05:04:28.306Z,35
2017-05-12T05:05:08.859Z,35
2017-05-12T05:05:49.430Z,35
2017-05-12T05:06:30.002Z,35
2017-05-12T05:07:10.570Z,35
2017-05-12T05:07:51.152Z,35
2017-05-12T05:08:31.731Z,35
2017-05-12T05:09:12.325Z,35
2017-05-12T05:09:52.897Z,35
2017-05-12T05:10:33.479Z,40
2017-05-12T05:11:14.155Z,40
2017-05-12T05:11:54.740Z,40
2017-05-12T05:12:35.330Z,45
2017-05-12T05:13:15.893Z,45
2017-05-12T05:13:56.472Z,45
2017-05-12T05:14:37.050Z,50
2017-05-12T05:15:17.629Z,50
2017-05-12T05:15:58.200Z,50
2017-05-12T05:16:39.941Z,55
2017-05-12T05:17:20.437Z,55
2017-05-12T05:18:01.004Z,55
2017-05-12T05:18:41.641Z,55
2017-05-12T05:19:22.214Z,55
2017-05-12T05:20:02.792Z,60
2017-05-12T05:20:43.370Z,60
2017-05-12T05:21:23.945Z,60
2017-05-12T05:22:04.514Z,65
2017-05-12T05:22:45.088Z,65
2017-05-12T05:23:25.675Z,65
2017-05-12T05:24:06.257Z,70
2017-05-12T05:24:46.834Z,65
2017-05-12T05:25:27.413Z,75
2017-05-12T05:26:07.982Z,75
2017-05-12T05:26:48.574Z,75
2017-05-12T05:27:29.148Z,75
2017-05-12T05:28:09.719Z,75
2017-05-12T05:28:50.288Z,75
2017-05-12T05:29:30.850Z,75
2017-05-12T05:30:11.435Z,75
2017-05-12T05:30:52.007Z,80
2017-05-12T05:31:32.590Z,80
2017-05-12T05:32:13.188Z,80
2017-05-12T05:32:53.773Z,80
2017-05-12T05:33:34.348Z,85
2017-05-12T05:34:14.927Z,85
2017-05-12T05:34:55.546Z,90
2017-05-12T05:35:36.116Z,95
2017-05-12T05:36:16.684Z,105
2017-05-12T05:36:57.254Z,110
2017-05-12T05:37:37.821Z,120
2017-05-12T05:38:18.400Z,130
2017-05-12T05:38:58.984Z,130
2017-05-12T05:39:39.569Z,135
2017-05-12T05:40:20.149Z,140
2017-05-12T05:41:00.719Z,140
2017-05-12T05:41:41.300Z,135
2017-05-12T05:42:21.879Z,135
2017-05-12T05:43:02.453Z,125
2017-05-12T05:43:43.023Z,125
2017-05-12T05:44:23.594Z,120
2017-05-12T05:45:04.173Z,110
2017-05-12T05:45:44.736Z,95
2017-05-12T05:46:25.312Z,85
2017-05-12T05:47:05.881Z,75
2017-05-12T05:47:46.453Z,70
2017-05-12T05:48:27.027Z,65
2017-05-12T05:49:07.599Z,65
2017-05-12T05:49:48.184Z,65
2017-05-12T05:50:28.753Z,65
2017-05-12T05:51:09.332Z,70
2017-05-12T05:51:49.904Z,75
2017-05-12T05:52:30.475Z,80
2017-05-12T05:53:11.056Z,90
2017-05-12T05:53:51.657Z,100
2017-05-12T05:54:32.318Z,105
2017-05-12T05:55:13.248Z,115
2017-05-12T05:55:53.830Z,120
2017-05-12T05:56:34.419Z,130
2017-05-12T05:57:15.026Z,140
2017-05-12T05:57:55.602Z,155
2017-05-12T05:58:36.181Z,165
2017-05-12T05:59:16.758Z,180
2017-05-12T05:59:57.333Z,190
2017-05-12T06:00:37.915Z,195
2017-05-12T06:01:18.495Z,190
2017-05-12T06:01:59.064Z,190
2017-05-12T06:02:39.649Z,200
2017-05-12T06:03:20.225Z,210
2017-05-12T06:04:00.798Z,215
2017-05-12T06:04:41.374Z,210
2017-05-12T06:05:21.958Z,195
2017-05-12T06:06:02.535Z,185
2017-05-12T06:06:43.102Z,185
2017-05-12T06:07:23.681Z,190
2017-05-12T06:08:04.249Z,190
2017-05-12T06:08:44.829Z,185
2017-05-12T06:09:25.405Z,175
2017-05-12T06:10:05.993Z,170
2017-05-12T06:10:46.569Z,165
2017-05-12T06:11:27.141Z,160
2017-05-12T06:12:07.719Z,160
2017-05-12T06:12:48.288Z,160
2017-05-12T06:13:28.869Z,160
2017-05-12T06:14:09.435Z,165
2017-05-12T06:14:50.015Z,170
2017-05-12T06:15:30.584Z,180
2017-05-12T06:16:11.149Z,190
2017-05-12T06:16:51.730Z,205
2017-05-12T06:17:32.302Z,220
2017-05-12T06:18:12.918Z,235
2017-05-12T06:18:53.493Z,245
2017-05-12T06:19:34.067Z,250
2017-05-12T06:20:14.640Z,260
2017-05-12T06:20:55.267Z,265
2017-05-12T06:21:35.842Z,275
2017-05-12T06:22:16.416Z,290
2017-05-12T06:22:57.001Z,290
2017-05-12T06:23:37.583Z,265
2017-05-12T06:24:18.151Z,260
2017-05-12T06:24:58.730Z,250
2017-05-12T06:25:39.324Z,250
2017-05-12T06:26:19.921Z,250
2017-05-12T06:27:00.515Z,250
2017-05-12T06:27:41.105Z,250
2017-05-12T06:28:21.667Z,255
2017-05-12T06:29:02.237Z,255
2017-05-12T06:29:53.637Z,260
2017-05-12T06:30:34.205Z,265
2017-05-12T06:31:14.792Z,265
2017-05-12T06:31:55.392Z,265
2017-05-12T06:32:35.967Z,275
2017-05-12T06:33:16.559Z,280
2017-05-12T06:33:57.131Z,295
2017-05-12T06:34:37.710Z,295
2017-05-12T06:35:18.298Z,300
2017-05-12T06:35:58.920Z,300
2017-05-12T06:36:39.493Z,300
2017-05-12T06:37:20.069Z,295
2017-05-12T06:38:00.637Z,285
2017-05-12T06:38:41.232Z,280
2017-05-12T06:39:21.925Z,275
2017-05-12T06:40:02.512Z,270
2017-05-12T06:40:43.098Z,265
2017-05-12T06:41:23.703Z,265
2017-05-12T06:42:04.283Z,265
2017-05-12T06:42:44.901Z,265
2017-05-12T06:43:25.488Z,260
2017-05-12T06:44:06.064Z,260
2017-05-12T06:44:46.634Z,260
2017-05-12T06:45:27.210Z,260
2017-05-12T06:46:07.797Z,255
2017-05-12T06:46:48.388Z,255
2017-05-12T06:47:29.053Z,250
2017-05-12T06:48:09.642Z,250
2017-05-12T06:48:50.256Z,250
2017-05-12T06:49:30.845Z,250
2017-05-12T06:50:11.437Z,250
2017-05-12T06:50:51.997Z,250
2017-05-12T06:51:32.571Z,250
2017-05-12T06:52:13.173Z,255
2017-05-12T06:52:53.781Z,255
2017-05-12T06:53:34.331Z,260
2017-05-12T06:54:14.979Z,265
2017-05-12T06:54:55.552Z,275
2017-05-12T06:55:36.122Z,280
2017-05-12T06:56:16.705Z,290
2017-05-12T06:56:57.294Z,295
2017-05-12T06:57:37.895Z,305
2017-05-12T06:58:18.489Z,310
2017-05-12T06:58:59.074Z,315
2017-05-12T06:59:39.716Z,315
2017-05-12T07:00:20.286Z,315
2017-05-12T07:01:00.867Z,320
2017-05-12T07:01:41.473Z,325
2017-05-12T07:02:22.058Z,320
2017-05-12T07:03:02.712Z,320
2017-05-12T07:03:43.325Z,320
2017-05-12T07:04:23.913Z,335
2017-05-12T07:05:04.516Z,345
2017-05-12T07:05:45.120Z,340
2017-05-12T07:06:25.702Z,345
2017-05-12T07:07:06.284Z,335
2017-05-12T07:07:46.936Z,365
2017-05-12T07:08:27.546Z,360
2017-05-12T07:09:08.163Z,375
2017-05-12T07:09:48.810Z,395
2017-05-12T07:10:29.413Z,400
2017-05-12T07:11:09.967Z,405
2017-05-12T07:11:50.607Z,460
2017-05-12T07:12:31.181Z,520
2017-05-12T07:13:11.774Z,780
2017-05-12T07:13:52.396Z,1000
2017-05-12T07:14:32.998Z,810
2017-05-12T07:15:13.603Z,885
2017-05-12T07:15:54.184Z,735
2017-05-12T07:16:34.853Z,865
2017-05-12T07:17:15.433Z,1130
2017-05-12T07:17:56.010Z,1175
2017-05-12T07:18:36.597Z,1295
2017-05-12T07:19:17.263Z,1495
2017-05-12T07:19:57.857Z,1560
2017-05-12T07:20:38.477Z,1410
2017-05-12T07:21:19.069Z,1300
2017-05-12T07:21:59.641Z,1030
2017-05-12T07:22:40.234Z,580
2017-05-12T07:23:20.790Z,430
2017-05-12T07:24:01.371Z,420
2017-05-12T07:24:41.943Z,445
2017-05-12T07:25:22.522Z,495
2017-05-12T07:26:03.082Z,620
2017-05-12T07:26:43.728Z,805
2017-05-12T07:27:24.299Z,675
2017-05-12T07:28:04.879Z,605
2017-05-12T07:28:45.450Z,675
2017-05-12T07:29:26.053Z,690
2017-05-12T07:30:06.593Z,645
2017-05-12T07:30:47.163Z,805
2017-05-12T07:31:27.730Z,855
2017-05-12T07:32:08.311Z,930
2017-05-12T07:32:48.878Z,880
2017-05-12T07:33:29.470Z,735
2017-05-12T07:34:10.045Z,660
2017-05-12T07:34:50.623Z,530
2017-05-12T07:35:31.214Z,580
2017-05-12T07:36:11.773Z,735
2017-05-12T07:36:52.348Z,1270
2017-05-12T07:37:32.937Z,1660
2017-05-12T07:38:13.527Z,1615
2017-05-12T07:38:54.112Z,1620
2017-05-12T07:39:34.695Z,1535
2017-05-12T07:40:15.286Z,1655
2017-05-12T07:40:55.866Z,1645
2017-05-12T07:41:36.449Z,1560
2017-05-12T07:42:17.036Z,1310
2017-05-12T07:42:57.623Z,975
2017-05-12T07:43:38.204Z,915
2017-05-12T07:44:18.795Z,565
2017-05-12T07:44:59.412Z,540
2017-05-12T07:45:39.995Z,470
2017-05-12T07:46:20.573Z,470
2017-05-12T07:47:01.168Z,425
2017-05-12T07:47:41.773Z,420
2017-05-12T07:48:22.346Z,425
2017-05-12T07:49:02.917Z,425
2017-05-12T07:49:43.508Z,485
2017-05-12T07:50:24.083Z,515
2017-05-12T07:51:04.676Z,535
2017-05-12T07:51:45.326Z,540
2017-05-12T07:52:25.920Z,550
2017-05-12T07:53:06.503Z,620
2017-05-12T07:53:47.068Z,615
2017-05-12T07:54:27.637Z,645
2017-05-12T07:55:08.229Z,680
2017-05-12T07:55:48.801Z,705
2017-05-12T07:56:29.384Z,730
2017-05-12T07:57:09.978Z,730
2017-05-12T07:57:50.562Z,710
2017-05-12T07:58:31.147Z,640
2017-05-12T07:59:11.777Z,635
2017-05-12T07:59:52.340Z,635
2017-05-12T08:00:32.965Z,660
2017-05-12T08:01:13.553Z,670
2017-05-12T08:01:54.161Z,655
2017-05-12T08:02:34.741Z,595
2017-05-12T08:03:15.322Z,530
2017-05-12T08:03:55.943Z,475
2017-05-12T08:04:36.529Z,425
2017-05-12T08:05:17.071Z,395
2017-05-12T08:05:57.652Z,380
2017-05-12T08:06:38.298Z,360
2017-05-12T08:07:18.871Z,355
2017-05-12T08:07:59.469Z,355
2017-05-12T08:08:40.067Z,365
2017-05-12T08:09:20.713Z,360
2017-05-12T08:10:01.266Z,360
2017-05-12T08:10:41.854Z,365
2017-05-12T08:11:22.431Z,360
2017-05-12T08:12:03.021Z,345
2017-05-12T08:12:43.669Z,330
2017-05-12T08:13:24.257Z,320
2017-05-12T08:14:04.941Z,315
2017-05-12T08:14:45.516Z,315
2017-05-12T08:15:26.092Z,320
2017-05-12T08:16:06.680Z,325
2017-05-12T08:16:47.249Z,325
2017-05-12T08:17:27.837Z,330
2017-05-12T08:18:08.422Z,340
2017-05-12T08:18:49.004Z,345
2017-05-12T08:19:29.610Z,350
2017-05-12T08:20:10.191Z,350
2017-05-12T08:20:50.760Z,360
2017-05-12T08:21:31.441Z,370
2017-05-12T08:22:12.066Z,380
2017-05-12T08:22:52.682Z,380
2017-05-12T08:23:33.264Z,380
2017-05-12T08:24:13.874Z,375
2017-05-12T08:24:54.463Z,375
2017-05-12T08:25:35.094Z,380
2017-05-12T08:26:15.743Z,385
2017-05-12T08:26:56.348Z,390
2017-05-12T08:27:36.939Z,400
2017-05-12T08:28:17.534Z,415
2017-05-12T08:28:58.175Z,425
2017-05-12T08:29:38.754Z,435
2017-05-12T08:30:19.354Z,455
2017-05-12T08:30:59.962Z,480
2017-05-12T08:31:40.571Z,515
2017-05-12T08:32:21.159Z,535
2017-05-12T08:33:01.782Z,540
2017-05-12T08:33:42.380Z,535
2017-05-12T08:34:23.005Z,520
2017-05-12T08:35:03.641Z,510
2017-05-12T08:35:44.256Z,500
2017-05-12T08:36:24.861Z,500
2017-05-12T08:37:05.475Z,490
2017-05-12T08:37:46.073Z,475
2017-05-12T08:38:26.675Z,455
2017-05-12T08:39:07.305Z,450
2017-05-12T08:39:47.916Z,460
2017-05-12T08:40:28.497Z,475
2017-05-12T08:41:09.083Z,505
2017-05-12T08:41:49.689Z,580
2017-05-12T08:42:30.286Z,610
2017-05-12T08:43:10.899Z,745
2017-05-12T08:43:51.495Z,1580
2017-05-12T08:44:32.112Z,1375
2017-05-12T08:45:12.725Z,2220
2017-05-12T08:45:53.360Z,2140
2017-05-12T08:46:33.970Z,2310
2017-05-12T08:47:14.562Z,2655
2017-05-12T08:47:55.187Z,2245
2017-05-12T08:48:35.792Z,2055
2017-05-12T08:49:16.481Z,2675
2017-05-12T08:49:57.101Z,2560
2017-05-12T08:50:37.715Z,2440
2017-05-12T08:51:18.325Z,2775
2017-05-12T08:51:58.985Z,2505
2017-05-12T08:52:39.597Z,2575
2017-05-12T08:53:20.214Z,2580
2017-05-12T08:54:00.794Z,1595
2017-05-12T08:54:41.450Z,1500
2017-05-12T08:55:22.044Z,1495
2017-05-12T08:56:02.633Z,3265
2017-05-12T08:56:43.276Z,2935
2017-05-12T08:57:23.857Z,2905
2017-05-12T08:58:04.449Z,2930
2017-05-12T08:58:45.034Z,3150
2017-05-12T08:59:25.609Z,3305
2017-05-12T09:00:06.188Z,2795
2017-05-12T09:00:46.814Z,940
2017-05-12T09:01:27.375Z,855
2017-05-12T09:02:08.001Z,1670
2017-05-12T09:02:48.609Z,1260
2017-05-12T09:03:29.206Z,1500
2017-05-12T09:04:09.785Z,760
2017-05-12T09:04:50.388Z,1390
2017-05-12T09:05:31.059Z,790
2017-05-12T09:06:11.587Z,865
2017-05-12T09:06:52.188Z,685
2017-05-12T09:07:32.861Z,680
2017-05-12T09:08:13.466Z,685
2017-05-12T09:08:54.102Z,740
2017-05-12T09:09:34.696Z,910
2017-05-12T09:10:15.317Z,805
2017-05-12T09:10:55.900Z,630
2017-05-12T09:11:36.507Z,755
2017-05-12T09:12:17.128Z,785
2017-05-12T09:12:57.743Z,660
2017-05-12T09:13:38.402Z,615
2017-05-12T09:14:18.997Z,1420
2017-05-12T09:14:59.580Z,2335
2017-05-12T09:15:40.229Z,2815
2017-05-12T09:16:20.872Z,2020
2017-05-12T09:17:01.422Z,2400
2017-05-12T09:17:42.021Z,1450
2017-05-12T09:18:22.629Z,1060
2017-05-12T09:19:03.207Z,905
2017-05-12T09:19:43.824Z,810
2017-05-12T09:20:24.413Z,740
2017-05-12T09:21:05.032Z,700
2017-05-12T09:21:45.632Z,680
2017-05-12T09:22:26.212Z,685
2017-05-12T09:23:06.821Z,700
2017-05-12T09:23:47.416Z,750
2017-05-12T09:24:28.048Z,1090
2017-05-12T09:25:08.621Z,1895
2017-05-12T09:25:49.215Z,2745
2017-05-12T09:26:29.833Z,3250
2017-05-12T09:27:10.417Z,3310
2017-05-12T09:27:51.038Z,3330
2017-05-12T09:28:31.678Z,3335
2017-05-12T09:29:12.270Z,3270
2017-05-12T09:29:52.863Z,3370
2017-05-12T09:30:33.483Z,3370
2017-05-12T09:31:14.056Z,3205
2017-05-12T09:31:54.660Z,3435
2017-05-12T09:32:35.258Z,3540
2017-05-12T09:33:15.863Z,3550
2017-05-12T09:33:56.483Z,3565
2017-05-12T09:34:37.052Z,3705
2017-05-12T09:35:17.759Z,3045
2017-05-12T09:35:58.340Z,3695
2017-05-12T09:36:38.983Z,3610
2017-05-12T09:37:19.618Z,3290
2017-05-12T09:38:00.212Z,3700
2017-05-12T09:38:40.797Z,3740
2017-05-12T09:39:21.402Z,3690
2017-05-12T09:40:01.982Z,3645